sensor_id;sensor_type;location;lat;lon;timestamp;P1;durP1;ratioP1;P2;durP2;ratioP2
52918;SDS011;38793;52.690;6.812;2023-07-31T00:00:34;1.23;;;1.13;;
52918;SDS011;38793;52.690;6.812;2023-07-31T00:02:59;2.50;;;1.00;;
52918;SDS011;38793;52.690;6.812;2023-07-31T00:05:25;5.72;;;1.15;;
52918;SDS011;38793;52.690;6.812;2023-07-31T00:07:50;2.60;;;1.35;;
52918;SDS011;38793;52.690;6.812;2023-07-31T00:10:16;2.28;;;1.38;;
52918;SDS011;38793;52.690;6.812;2023-07-31T00:12:42;2.30;;;1.55;;
52918;SDS011;38793;52.690;6.812;2023-07-31T00:15:09;4.05;;;1.52;;
52918;SDS011;38793;52.690;6.812;2023-07-31T00:20:01;1.95;;;1.20;;
52918;SDS011;38793;52.690;6.812;2023-07-31T00:22:27;1.67;;;1.33;;
52918;SDS011;38793;52.690;6.812;2023-07-31T00:24:52;1.98;;;1.55;;
52918;SDS011;38793;52.690;6.812;2023-07-31T00:27:18;1.85;;;1.42;;
52918;SDS011;38793;52.690;6.812;2023-07-31T00:29:44;7.10;;;1.67;;
52918;SDS011;38793;52.690;6.812;2023-07-31T00:32:09;4.15;;;1.52;;
52918;SDS011;38793;52.690;6.812;2023-07-31T00:34:35;2.38;;;1.20;;
52918;SDS011;38793;52.690;6.812;2023-07-31T00:37:00;1.60;;;1.38;;
52918;SDS011;38793;52.690;6.812;2023-07-31T00:39:26;1.52;;;1.15;;
52918;SDS011;38793;52.690;6.812;2023-07-31T00:41:51;1.70;;;1.02;;
52918;SDS011;38793;52.690;6.812;2023-07-31T00:44:17;1.60;;;1.48;;
52918;SDS011;38793;52.690;6.812;2023-07-31T00:46:42;3.28;;;1.23;;
52918;SDS011;38793;52.690;6.812;2023-07-31T00:49:08;1.40;;;1.25;;
52918;SDS011;38793;52.690;6.812;2023-07-31T00:51:35;1.30;;;0.95;;
52918;SDS011;38793;52.690;6.812;2023-07-31T00:54:00;2.08;;;0.95;;
52918;SDS011;38793;52.690;6.812;2023-07-31T00:56:27;1.92;;;0.93;;
52918;SDS011;38793;52.690;6.812;2023-07-31T00:58:53;1.52;;;1.08;;
52918;SDS011;38793;52.690;6.812;2023-07-31T01:03:45;1.30;;;0.90;;
52918;SDS011;38793;52.690;6.812;2023-07-31T01:06:15;2.65;;;0.80;;
52918;SDS011;38793;52.690;6.812;2023-07-31T01:08:57;1.40;;;0.90;;
52918;SDS011;38793;52.690;6.812;2023-07-31T01:11:27;2.25;;;0.70;;
52918;SDS011;38793;52.690;6.812;2023-07-31T01:13:55;2.10;;;0.68;;
52918;SDS011;38793;52.690;6.812;2023-07-31T01:16:21;2.65;;;0.75;;
52918;SDS011;38793;52.690;6.812;2023-07-31T01:18:47;1.05;;;0.73;;
52918;SDS011;38793;52.690;6.812;2023-07-31T01:27:06;1.02;;;0.63;;
52918;SDS011;38793;52.690;6.812;2023-07-31T01:29:37;1.05;;;0.70;;
52918;SDS011;38793;52.690;6.812;2023-07-31T01:32:11;2.70;;;0.93;;
52918;SDS011;38793;52.690;6.812;2023-07-31T01:34:38;1.50;;;0.60;;
52918;SDS011;38793;52.690;6.812;2023-07-31T01:37:05;1.83;;;0.68;;
52918;SDS011;38793;52.690;6.812;2023-07-31T01:39:31;2.38;;;0.85;;
52918;SDS011;38793;52.690;6.812;2023-07-31T01:41:56;1.00;;;0.50;;
52918;SDS011;38793;52.690;6.812;2023-07-31T01:44:22;1.02;;;0.60;;
52918;SDS011;38793;52.690;6.812;2023-07-31T01:46:47;1.50;;;0.73;;
52918;SDS011;38793;52.690;6.812;2023-07-31T01:49:13;0.82;;;0.50;;
52918;SDS011;38793;52.690;6.812;2023-07-31T01:51:39;1.00;;;0.73;;
52918;SDS011;38793;52.690;6.812;2023-07-31T01:54:04;1.40;;;0.57;;
52918;SDS011;38793;52.690;6.812;2023-07-31T01:56:30;1.33;;;0.80;;
52918;SDS011;38793;52.690;6.812;2023-07-31T01:58:56;2.78;;;0.50;;
52918;SDS011;38793;52.690;6.812;2023-07-31T02:01:21;1.30;;;0.77;;
52918;SDS011;38793;52.690;6.812;2023-07-31T02:03:47;1.25;;;0.70;;
52918;SDS011;38793;52.690;6.812;2023-07-31T02:06:12;2.00;;;0.52;;
52918;SDS011;38793;52.690;6.812;2023-07-31T02:08:38;0.95;;;0.40;;
52918;SDS011;38793;52.690;6.812;2023-07-31T02:11:03;0.50;;;0.40;;
52918;SDS011;38793;52.690;6.812;2023-07-31T02:13:29;0.70;;;0.40;;
52918;SDS011;38793;52.690;6.812;2023-07-31T02:15:55;0.80;;;0.40;;
52918;SDS011;38793;52.690;6.812;2023-07-31T02:18:20;3.72;;;0.57;;
52918;SDS011;38793;52.690;6.812;2023-07-31T02:20:50;1.13;;;0.50;;
52918;SDS011;38793;52.690;6.812;2023-07-31T02:23:17;1.15;;;0.60;;
52918;SDS011;38793;52.690;6.812;2023-07-31T02:25:43;2.00;;;0.50;;
52918;SDS011;38793;52.690;6.812;2023-07-31T02:28:09;0.93;;;0.43;;
52918;SDS011;38793;52.690;6.812;2023-07-31T02:30:35;2.35;;;0.40;;
52918;SDS011;38793;52.690;6.812;2023-07-31T02:33:00;1.02;;;0.50;;
52918;SDS011;38793;52.690;6.812;2023-07-31T02:35:26;0.80;;;0.60;;
52918;SDS011;38793;52.690;6.812;2023-07-31T02:37:51;1.30;;;0.65;;
52918;SDS011;38793;52.690;6.812;2023-07-31T02:40:17;1.63;;;0.85;;
52918;SDS011;38793;52.690;6.812;2023-07-31T02:42:42;0.75;;;0.75;;
52918;SDS011;38793;52.690;6.812;2023-07-31T02:45:08;2.05;;;0.80;;
52918;SDS011;38793;52.690;6.812;2023-07-31T02:47:34;1.42;;;0.75;;
52918;SDS011;38793;52.690;6.812;2023-07-31T02:50:00;1.30;;;0.50;;
52918;SDS011;38793;52.690;6.812;2023-07-31T02:52:26;0.77;;;0.40;;
52918;SDS011;38793;52.690;6.812;2023-07-31T02:54:52;2.13;;;0.45;;
52918;SDS011;38793;52.690;6.812;2023-07-31T02:57:17;1.75;;;0.47;;
52918;SDS011;38793;52.690;6.812;2023-07-31T02:59:43;0.93;;;0.50;;
52918;SDS011;38793;52.690;6.812;2023-07-31T03:02:08;0.98;;;0.60;;
52918;SDS011;38793;52.690;6.812;2023-07-31T03:04:34;1.42;;;0.40;;
52918;SDS011;38793;52.690;6.812;2023-07-31T03:06:59;1.67;;;0.63;;
52918;SDS011;38793;52.690;6.812;2023-07-31T03:09:25;0.75;;;0.63;;
52918;SDS011;38793;52.690;6.812;2023-07-31T03:11:50;1.48;;;0.80;;
52918;SDS011;38793;52.690;6.812;2023-07-31T03:14:16;1.25;;;0.50;;
52918;SDS011;38793;52.690;6.812;2023-07-31T03:16:42;2.22;;;0.57;;
52918;SDS011;38793;52.690;6.812;2023-07-31T03:19:07;0.93;;;0.50;;
52918;SDS011;38793;52.690;6.812;2023-07-31T03:21:33;3.08;;;0.68;;
52918;SDS011;38793;52.690;6.812;2023-07-31T03:23:58;1.50;;;0.50;;
52918;SDS011;38793;52.690;6.812;2023-07-31T03:26:24;1.40;;;0.50;;
52918;SDS011;38793;52.690;6.812;2023-07-31T03:28:49;1.67;;;0.60;;
52918;SDS011;38793;52.690;6.812;2023-07-31T03:31:15;0.95;;;0.60;;
52918;SDS011;38793;52.690;6.812;2023-07-31T03:33:40;1.60;;;0.60;;
52918;SDS011;38793;52.690;6.812;2023-07-31T03:36:06;1.00;;;0.60;;
52918;SDS011;38793;52.690;6.812;2023-07-31T03:40:58;0.90;;;0.50;;
52918;SDS011;38793;52.690;6.812;2023-07-31T03:43:24;1.05;;;0.50;;
52918;SDS011;38793;52.690;6.812;2023-07-31T03:45:50;0.95;;;0.40;;
52918;SDS011;38793;52.690;6.812;2023-07-31T03:48:16;0.80;;;0.40;;
52918;SDS011;38793;52.690;6.812;2023-07-31T03:50:41;1.98;;;0.40;;
52918;SDS011;38793;52.690;6.812;2023-07-31T03:53:07;0.90;;;0.30;;
52918;SDS011;38793;52.690;6.812;2023-07-31T03:55:33;2.55;;;0.52;;
52918;SDS011;38793;52.690;6.812;2023-07-31T03:57:58;0.70;;;0.47;;
52918;SDS011;38793;52.690;6.812;2023-07-31T04:00:25;0.70;;;0.32;;
52918;SDS011;38793;52.690;6.812;2023-07-31T04:02:52;0.55;;;0.30;;
52918;SDS011;38793;52.690;6.812;2023-07-31T04:05:17;1.45;;;0.40;;
52918;SDS011;38793;52.690;6.812;2023-07-31T04:07:43;1.73;;;0.50;;
52918;SDS011;38793;52.690;6.812;2023-07-31T04:10:09;1.02;;;0.60;;
52918;SDS011;38793;52.690;6.812;2023-07-31T04:12:34;0.55;;;0.40;;
52918;SDS011;38793;52.690;6.812;2023-07-31T04:15:00;0.85;;;0.25;;
52918;SDS011;38793;52.690;6.812;2023-07-31T04:17:26;0.68;;;0.30;;
52918;SDS011;38793;52.690;6.812;2023-07-31T04:19:51;1.50;;;0.25;;
52918;SDS011;38793;52.690;6.812;2023-07-31T04:22:17;1.70;;;0.40;;
52918;SDS011;38793;52.690;6.812;2023-07-31T04:24:42;0.75;;;0.25;;
52918;SDS011;38793;52.690;6.812;2023-07-31T04:27:08;1.52;;;0.47;;
52918;SDS011;38793;52.690;6.812;2023-07-31T04:29:33;2.60;;;0.70;;
52918;SDS011;38793;52.690;6.812;2023-07-31T04:31:59;3.55;;;1.42;;
52918;SDS011;38793;52.690;6.812;2023-07-31T04:34:25;4.97;;;2.47;;
52918;SDS011;38793;52.690;6.812;2023-07-31T04:36:50;12.73;;;3.60;;
52918;SDS011;38793;52.690;6.812;2023-07-31T04:39:16;9.10;;;3.85;;
52918;SDS011;38793;52.690;6.812;2023-07-31T04:41:41;16.75;;;5.30;;
52918;SDS011;38793;52.690;6.812;2023-07-31T04:44:07;13.38;;;4.82;;
52918;SDS011;38793;52.690;6.812;2023-07-31T04:46:32;11.57;;;4.82;;
52918;SDS011;38793;52.690;6.812;2023-07-31T04:48:58;14.60;;;6.13;;
52918;SDS011;38793;52.690;6.812;2023-07-31T04:51:23;15.40;;;6.07;;
52918;SDS011;38793;52.690;6.812;2023-07-31T04:56:15;13.93;;;5.25;;
52918;SDS011;38793;52.690;6.812;2023-07-31T04:58:41;16.63;;;5.88;;
52918;SDS011;38793;52.690;6.812;2023-07-31T05:01:07;12.95;;;5.15;;
52918;SDS011;38793;52.690;6.812;2023-07-31T05:03:32;15.50;;;5.70;;
52918;SDS011;38793;52.690;6.812;2023-07-31T05:05:58;17.67;;;5.97;;
52918;SDS011;38793;52.690;6.812;2023-07-31T05:08:23;16.42;;;5.90;;
52918;SDS011;38793;52.690;6.812;2023-07-31T05:10:49;17.27;;;6.20;;
52918;SDS011;38793;52.690;6.812;2023-07-31T05:13:15;15.70;;;7.00;;
52918;SDS011;38793;52.690;6.812;2023-07-31T05:15:41;26.92;;;8.18;;
52918;SDS011;38793;52.690;6.812;2023-07-31T05:18:06;25.23;;;8.43;;
52918;SDS011;38793;52.690;6.812;2023-07-31T05:20:32;23.70;;;8.43;;
52918;SDS011;38793;52.690;6.812;2023-07-31T05:22:57;29.85;;;9.68;;
52918;SDS011;38793;52.690;6.812;2023-07-31T05:25:23;27.98;;;8.88;;
52918;SDS011;38793;52.690;6.812;2023-07-31T05:27:48;23.15;;;8.85;;
52918;SDS011;38793;52.690;6.812;2023-07-31T05:30:14;22.42;;;9.77;;
52918;SDS011;38793;52.690;6.812;2023-07-31T05:32:40;20.40;;;9.75;;
52918;SDS011;38793;52.690;6.812;2023-07-31T05:35:05;22.10;;;9.77;;
52918;SDS011;38793;52.690;6.812;2023-07-31T05:37:31;22.23;;;9.82;;
52918;SDS011;38793;52.690;6.812;2023-07-31T05:39:57;25.20;;;10.13;;
52918;SDS011;38793;52.690;6.812;2023-07-31T05:42:23;37.88;;;10.98;;
52918;SDS011;38793;52.690;6.812;2023-07-31T05:44:48;22.10;;;9.48;;
52918;SDS011;38793;52.690;6.812;2023-07-31T05:47:14;23.50;;;9.48;;
52918;SDS011;38793;52.690;6.812;2023-07-31T05:49:40;29.83;;;11.05;;
52918;SDS011;38793;52.690;6.812;2023-07-31T05:52:05;24.65;;;11.45;;
52918;SDS011;38793;52.690;6.812;2023-07-31T05:54:32;24.75;;;10.32;;
52918;SDS011;38793;52.690;6.812;2023-07-31T05:56:58;26.17;;;12.15;;
52918;SDS011;38793;52.690;6.812;2023-07-31T05:59:23;22.08;;;11.32;;
52918;SDS011;38793;52.690;6.812;2023-07-31T06:01:49;33.50;;;13.73;;
52918;SDS011;38793;52.690;6.812;2023-07-31T06:04:14;30.73;;;12.68;;
52918;SDS011;38793;52.690;6.812;2023-07-31T06:06:40;26.50;;;12.68;;
52918;SDS011;38793;52.690;6.812;2023-07-31T06:09:06;29.55;;;12.40;;
52918;SDS011;38793;52.690;6.812;2023-07-31T06:11:32;27.15;;;12.75;;
52918;SDS011;38793;52.690;6.812;2023-07-31T06:16:24;29.33;;;11.35;;
52918;SDS011;38793;52.690;6.812;2023-07-31T06:18:52;29.42;;;11.45;;
52918;SDS011;38793;52.690;6.812;2023-07-31T06:21:17;25.00;;;11.95;;
52918;SDS011;38793;52.690;6.812;2023-07-31T06:23:43;28.60;;;12.15;;
52918;SDS011;38793;52.690;6.812;2023-07-31T06:26:09;35.05;;;11.70;;
52918;SDS011;38793;52.690;6.812;2023-07-31T06:28:34;29.23;;;11.10;;
52918;SDS011;38793;52.690;6.812;2023-07-31T06:31:00;29.65;;;11.15;;
52918;SDS011;38793;52.690;6.812;2023-07-31T06:33:26;31.10;;;11.30;;
52918;SDS011;38793;52.690;6.812;2023-07-31T06:35:52;26.00;;;10.68;;
52918;SDS011;38793;52.690;6.812;2023-07-31T06:38:24;31.70;;;10.68;;
52918;SDS011;38793;52.690;6.812;2023-07-31T06:40:51;32.28;;;11.20;;
52918;SDS011;38793;52.690;6.812;2023-07-31T06:45:43;27.02;;;9.88;;
52918;SDS011;38793;52.690;6.812;2023-07-31T06:48:09;26.58;;;9.68;;
52918;SDS011;38793;52.690;6.812;2023-07-31T06:50:34;25.35;;;10.27;;
52918;SDS011;38793;52.690;6.812;2023-07-31T06:53:00;30.30;;;11.65;;
52918;SDS011;38793;52.690;6.812;2023-07-31T06:55:26;23.80;;;8.57;;
52918;SDS011;38793;52.690;6.812;2023-07-31T06:57:52;21.65;;;9.70;;
52918;SDS011;38793;52.690;6.812;2023-07-31T07:00:19;23.25;;;9.40;;
52918;SDS011;38793;52.690;6.812;2023-07-31T07:02:46;24.38;;;10.40;;
52918;SDS011;38793;52.690;6.812;2023-07-31T07:05:15;22.75;;;8.95;;
52918;SDS011;38793;52.690;6.812;2023-07-31T07:07:41;21.30;;;8.30;;
52918;SDS011;38793;52.690;6.812;2023-07-31T07:10:08;23.35;;;7.80;;
52918;SDS011;38793;52.690;6.812;2023-07-31T07:12:34;20.83;;;7.43;;
52918;SDS011;38793;52.690;6.812;2023-07-31T07:15:00;15.23;;;8.15;;
52918;SDS011;38793;52.690;6.812;2023-07-31T07:17:28;20.08;;;8.18;;
52918;SDS011;38793;52.690;6.812;2023-07-31T07:19:57;18.20;;;8.50;;
52918;SDS011;38793;52.690;6.812;2023-07-31T07:22:23;22.45;;;8.98;;
52918;SDS011;38793;52.690;6.812;2023-07-31T07:24:49;23.02;;;8.68;;
52918;SDS011;38793;52.690;6.812;2023-07-31T07:27:14;19.30;;;8.70;;
52918;SDS011;38793;52.690;6.812;2023-07-31T07:29:40;23.35;;;7.88;;
52918;SDS011;38793;52.690;6.812;2023-07-31T07:32:06;17.17;;;7.68;;
52918;SDS011;38793;52.690;6.812;2023-07-31T07:34:31;15.65;;;7.38;;
52918;SDS011;38793;52.690;6.812;2023-07-31T07:36:57;13.63;;;6.75;;
52918;SDS011;38793;52.690;6.812;2023-07-31T07:39:22;15.50;;;7.00;;
52918;SDS011;38793;52.690;6.812;2023-07-31T07:41:48;12.00;;;6.93;;
52918;SDS011;38793;52.690;6.812;2023-07-31T07:44:14;14.60;;;7.10;;
52918;SDS011;38793;52.690;6.812;2023-07-31T07:46:39;9.43;;;5.57;;
52918;SDS011;38793;52.690;6.812;2023-07-31T07:49:06;19.08;;;7.38;;
52918;SDS011;38793;52.690;6.812;2023-07-31T07:51:31;7.72;;;5.15;;
52918;SDS011;38793;52.690;6.812;2023-07-31T07:53:57;11.27;;;5.57;;
52918;SDS011;38793;52.690;6.812;2023-07-31T07:58:51;10.77;;;5.00;;
52918;SDS011;38793;52.690;6.812;2023-07-31T08:01:16;11.95;;;5.20;;
52918;SDS011;38793;52.690;6.812;2023-07-31T08:03:42;10.30;;;4.78;;
52918;SDS011;38793;52.690;6.812;2023-07-31T08:06:08;10.98;;;5.50;;
52918;SDS011;38793;52.690;6.812;2023-07-31T08:08:36;10.75;;;4.35;;
52918;SDS011;38793;52.690;6.812;2023-07-31T08:13:29;8.50;;;4.00;;
52918;SDS011;38793;52.690;6.812;2023-07-31T08:15:54;5.60;;;3.42;;
52918;SDS011;38793;52.690;6.812;2023-07-31T08:18:20;5.60;;;4.20;;
52918;SDS011;38793;52.690;6.812;2023-07-31T08:20:46;6.03;;;3.38;;
52918;SDS011;38793;52.690;6.812;2023-07-31T08:23:11;6.47;;;3.63;;
52918;SDS011;38793;52.690;6.812;2023-07-31T08:25:37;5.60;;;3.65;;
52918;SDS011;38793;52.690;6.812;2023-07-31T08:30:30;5.43;;;2.78;;
52918;SDS011;38793;52.690;6.812;2023-07-31T08:32:56;4.07;;;3.17;;
52918;SDS011;38793;52.690;6.812;2023-07-31T08:37:47;6.28;;;2.33;;
52918;SDS011;38793;52.690;6.812;2023-07-31T08:40:13;4.43;;;2.30;;
52918;SDS011;38793;52.690;6.812;2023-07-31T08:42:45;5.25;;;2.65;;
52918;SDS011;38793;52.690;6.812;2023-07-31T08:45:18;4.28;;;2.78;;
52918;SDS011;38793;52.690;6.812;2023-07-31T08:47:45;5.95;;;2.55;;
52918;SDS011;38793;52.690;6.812;2023-07-31T08:50:13;3.58;;;2.58;;
52918;SDS011;38793;52.690;6.812;2023-07-31T08:52:39;3.33;;;1.90;;
52918;SDS011;38793;52.690;6.812;2023-07-31T08:55:06;3.60;;;1.65;;
52918;SDS011;38793;52.690;6.812;2023-07-31T08:57:32;3.17;;;1.67;;
52918;SDS011;38793;52.690;6.812;2023-07-31T09:00:00;3.85;;;1.48;;
52918;SDS011;38793;52.690;6.812;2023-07-31T09:02:28;2.22;;;1.77;;
52918;SDS011;38793;52.690;6.812;2023-07-31T09:05:14;3.17;;;1.65;;
52918;SDS011;38793;52.690;6.812;2023-07-31T09:07:41;2.05;;;1.70;;
52918;SDS011;38793;52.690;6.812;2023-07-31T09:10:11;3.75;;;1.00;;
52918;SDS011;38793;52.690;6.812;2023-07-31T09:15:03;2.42;;;1.30;;
52918;SDS011;38793;52.690;6.812;2023-07-31T09:17:30;2.15;;;1.15;;
52918;SDS011;38793;52.690;6.812;2023-07-31T09:19:56;3.05;;;1.05;;
52918;SDS011;38793;52.690;6.812;2023-07-31T09:22:32;1.98;;;1.20;;
52918;SDS011;38793;52.690;6.812;2023-07-31T09:25:18;1.73;;;1.17;;
52918;SDS011;38793;52.690;6.812;2023-07-31T09:27:45;2.92;;;0.55;;
52918;SDS011;38793;52.690;6.812;2023-07-31T09:30:14;1.95;;;1.15;;
52918;SDS011;38793;52.690;6.812;2023-07-31T09:32:40;4.32;;;0.90;;
52918;SDS011;38793;52.690;6.812;2023-07-31T09:35:28;0.52;;;0.50;;
52918;SDS011;38793;52.690;6.812;2023-07-31T09:37:59;0.90;;;0.47;;
52918;SDS011;38793;52.690;6.812;2023-07-31T09:40:31;1.00;;;0.35;;
52918;SDS011;38793;52.690;6.812;2023-07-31T09:43:01;0.60;;;0.50;;
52918;SDS011;38793;52.690;6.812;2023-07-31T09:45:29;0.60;;;0.57;;
52918;SDS011;38793;52.690;6.812;2023-07-31T09:47:56;1.35;;;0.30;;
52918;SDS011;38793;52.690;6.812;2023-07-31T09:50:22;1.08;;;0.60;;
52918;SDS011;38793;52.690;6.812;2023-07-31T09:52:49;1.95;;;0.40;;
52918;SDS011;38793;52.690;6.812;2023-07-31T09:55:15;0.80;;;0.30;;
52918;SDS011;38793;52.690;6.812;2023-07-31T09:57:42;1.38;;;0.40;;
52918;SDS011;38793;52.690;6.812;2023-07-31T10:00:10;1.13;;;0.40;;
52918;SDS011;38793;52.690;6.812;2023-07-31T10:02:37;0.50;;;0.40;;
52918;SDS011;38793;52.690;6.812;2023-07-31T10:05:04;0.50;;;0.40;;
52918;SDS011;38793;52.690;6.812;2023-07-31T10:07:31;0.85;;;0.73;;
52918;SDS011;38793;52.690;6.812;2023-07-31T10:10:01;2.05;;;0.57;;
52918;SDS011;38793;52.690;6.812;2023-07-31T10:12:29;1.10;;;0.73;;
52918;SDS011;38793;52.690;6.812;2023-07-31T10:14:56;1.20;;;0.82;;
52918;SDS011;38793;52.690;6.812;2023-07-31T10:17:24;1.00;;;0.90;;
52918;SDS011;38793;52.690;6.812;2023-07-31T10:19:50;1.05;;;0.95;;
52918;SDS011;38793;52.690;6.812;2023-07-31T10:24:43;1.55;;;1.27;;
52918;SDS011;38793;52.690;6.812;2023-07-31T10:27:11;1.65;;;1.45;;
52918;SDS011;38793;52.690;6.812;2023-07-31T10:29:37;1.65;;;1.55;;
52918;SDS011;38793;52.690;6.812;2023-07-31T10:32:04;1.23;;;1.13;;
52918;SDS011;38793;52.690;6.812;2023-07-31T10:34:33;1.20;;;1.10;;
52918;SDS011;38793;52.690;6.812;2023-07-31T10:39:49;1.08;;;0.93;;
52918;SDS011;38793;52.690;6.812;2023-07-31T10:42:35;1.02;;;0.70;;
52918;SDS011;38793;52.690;6.812;2023-07-31T10:45:08;3.47;;;0.88;;
52918;SDS011;38793;52.690;6.812;2023-07-31T10:47:37;2.75;;;1.20;;
52918;SDS011;38793;52.690;6.812;2023-07-31T10:50:14;0.95;;;0.90;;
52918;SDS011;38793;52.690;6.812;2023-07-31T10:52:52;1.40;;;1.08;;
52918;SDS011;38793;52.690;6.812;2023-07-31T10:55:41;1.48;;;1.00;;
52918;SDS011;38793;52.690;6.812;2023-07-31T11:00:36;2.67;;;1.77;;
52918;SDS011;38793;52.690;6.812;2023-07-31T11:03:07;1.83;;;1.45;;
52918;SDS011;38793;52.690;6.812;2023-07-31T11:10:47;1.60;;;1.20;;
52918;SDS011;38793;52.690;6.812;2023-07-31T11:13:15;2.92;;;1.40;;
52918;SDS011;38793;52.690;6.812;2023-07-31T11:15:41;2.03;;;1.23;;
52918;SDS011;38793;52.690;6.812;2023-07-31T11:18:06;3.30;;;1.20;;
52918;SDS011;38793;52.690;6.812;2023-07-31T11:20:33;1.02;;;0.93;;
52918;SDS011;38793;52.690;6.812;2023-07-31T11:23:06;1.20;;;1.10;;
52918;SDS011;38793;52.690;6.812;2023-07-31T11:25:33;2.72;;;0.90;;
52918;SDS011;38793;52.690;6.812;2023-07-31T11:28:05;1.42;;;0.88;;
52918;SDS011;38793;52.690;6.812;2023-07-31T11:30:34;1.23;;;1.00;;
52918;SDS011;38793;52.690;6.812;2023-07-31T11:33:01;0.90;;;0.90;;
52918;SDS011;38793;52.690;6.812;2023-07-31T11:35:28;1.10;;;1.00;;
52918;SDS011;38793;52.690;6.812;2023-07-31T11:37:55;1.90;;;1.80;;
52918;SDS011;38793;52.690;6.812;2023-07-31T11:40:20;1.48;;;1.38;;
52918;SDS011;38793;52.690;6.812;2023-07-31T11:42:46;1.60;;;1.50;;
52918;SDS011;38793;52.690;6.812;2023-07-31T11:45:12;1.85;;;1.75;;
52918;SDS011;38793;52.690;6.812;2023-07-31T11:47:37;2.20;;;2.10;;
52918;SDS011;38793;52.690;6.812;2023-07-31T11:50:04;4.28;;;2.70;;
52918;SDS011;38793;52.690;6.812;2023-07-31T11:52:39;2.70;;;2.30;;
52918;SDS011;38793;52.690;6.812;2023-07-31T11:55:08;2.72;;;2.50;;
52918;SDS011;38793;52.690;6.812;2023-07-31T11:57:39;5.22;;;2.72;;
52918;SDS011;38793;52.690;6.812;2023-07-31T12:00:08;3.15;;;2.95;;
52918;SDS011;38793;52.690;6.812;2023-07-31T12:02:38;4.00;;;2.30;;
52918;SDS011;38793;52.690;6.812;2023-07-31T12:05:10;2.95;;;2.63;;
52918;SDS011;38793;52.690;6.812;2023-07-31T12:07:46;2.38;;;2.17;;
52918;SDS011;38793;52.690;6.812;2023-07-31T12:13:04;3.58;;;3.28;;
52918;SDS011;38793;52.690;6.812;2023-07-31T12:15:38;3.65;;;3.40;;
52918;SDS011;38793;52.690;6.812;2023-07-31T12:18:15;4.63;;;4.32;;
52918;SDS011;38793;52.690;6.812;2023-07-31T12:20:46;5.57;;;5.18;;
52918;SDS011;38793;52.690;6.812;2023-07-31T12:23:13;4.05;;;3.75;;
52918;SDS011;38793;52.690;6.812;2023-07-31T12:28:27;5.68;;;5.28;;
52918;SDS011;38793;52.690;6.812;2023-07-31T12:30:56;6.10;;;5.50;;
52918;SDS011;38793;52.690;6.812;2023-07-31T12:33:23;9.25;;;5.40;;
52918;SDS011;38793;52.690;6.812;2023-07-31T12:35:48;5.22;;;4.82;;
52918;SDS011;38793;52.690;6.812;2023-07-31T12:38:14;6.80;;;5.47;;
52918;SDS011;38793;52.690;6.812;2023-07-31T12:40:40;5.30;;;4.90;;
52918;SDS011;38793;52.690;6.812;2023-07-31T12:43:07;4.50;;;4.18;;
52918;SDS011;38793;52.690;6.812;2023-07-31T12:45:33;4.03;;;3.72;;
52918;SDS011;38793;52.690;6.812;2023-07-31T12:48:00;4.63;;;4.25;;
52918;SDS011;38793;52.690;6.812;2023-07-31T12:50:26;4.30;;;4.00;;
52918;SDS011;38793;52.690;6.812;2023-07-31T12:52:55;3.33;;;3.13;;
52918;SDS011;38793;52.690;6.812;2023-07-31T12:55:22;4.05;;;3.38;;
52918;SDS011;38793;52.690;6.812;2023-07-31T13:00:14;7.10;;;4.22;;
52918;SDS011;38793;52.690;6.812;2023-07-31T13:02:39;4.50;;;4.10;;
52918;SDS011;38793;52.690;6.812;2023-07-31T13:07:31;3.40;;;3.10;;
52918;SDS011;38793;52.690;6.812;2023-07-31T13:09:57;2.83;;;2.63;;
52918;SDS011;38793;52.690;6.812;2023-07-31T13:12:22;2.33;;;2.13;;
52918;SDS011;38793;52.690;6.812;2023-07-31T13:14:48;3.72;;;2.60;;
52918;SDS011;38793;52.690;6.812;2023-07-31T13:17:13;3.97;;;2.30;;
52918;SDS011;38793;52.690;6.812;2023-07-31T13:22:04;2.55;;;1.98;;
52918;SDS011;38793;52.690;6.812;2023-07-31T13:26:56;3.00;;;2.75;;
52918;SDS011;38793;52.690;6.812;2023-07-31T13:29:22;4.32;;;2.88;;
52918;SDS011;38793;52.690;6.812;2023-07-31T13:31:48;3.63;;;3.35;;
52918;SDS011;38793;52.690;6.812;2023-07-31T13:34:14;3.92;;;3.28;;
52918;SDS011;38793;52.690;6.812;2023-07-31T13:39:06;5.47;;;4.20;;
52918;SDS011;38793;52.690;6.812;2023-07-31T13:43:57;5.30;;;4.68;;
52918;SDS011;38793;52.690;6.812;2023-07-31T13:46:23;6.30;;;4.00;;
52918;SDS011;38793;52.690;6.812;2023-07-31T13:48:50;4.65;;;4.25;;
52918;SDS011;38793;52.690;6.812;2023-07-31T13:51:16;4.15;;;3.83;;
52918;SDS011;38793;52.690;6.812;2023-07-31T13:56:07;4.13;;;2.22;;
52918;SDS011;38793;52.690;6.812;2023-07-31T14:00:58;1.83;;;1.30;;
52918;SDS011;38793;52.690;6.812;2023-07-31T14:05:49;1.98;;;1.55;;
52918;SDS011;38793;52.690;6.812;2023-07-31T14:08:16;1.55;;;1.45;;
52918;SDS011;38793;52.690;6.812;2023-07-31T14:10:42;2.45;;;1.33;;
52918;SDS011;38793;52.690;6.812;2023-07-31T14:15:33;2.65;;;1.33;;
52918;SDS011;38793;52.690;6.812;2023-07-31T14:18:00;1.38;;;1.15;;
52918;SDS011;38793;52.690;6.812;2023-07-31T14:20:26;2.17;;;1.33;;
52918;SDS011;38793;52.690;6.812;2023-07-31T14:22:52;2.83;;;1.25;;
52918;SDS011;38793;52.690;6.812;2023-07-31T14:27:43;1.60;;;1.02;;
52918;SDS011;38793;52.690;6.812;2023-07-31T14:32:34;1.35;;;0.85;;
52918;SDS011;38793;52.690;6.812;2023-07-31T14:35:02;1.10;;;0.75;;
52918;SDS011;38793;52.690;6.812;2023-07-31T14:40:01;3.20;;;0.70;;
52918;SDS011;38793;52.690;6.812;2023-07-31T14:42:26;0.93;;;0.65;;
52918;SDS011;38793;52.690;6.812;2023-07-31T14:44:52;5.53;;;0.90;;
52918;SDS011;38793;52.690;6.812;2023-07-31T14:49:43;1.58;;;1.27;;
52918;SDS011;38793;52.690;6.812;2023-07-31T14:54:34;1.10;;;1.00;;
52918;SDS011;38793;52.690;6.812;2023-07-31T14:57:01;2.10;;;1.15;;
52918;SDS011;38793;52.690;6.812;2023-07-31T14:59:26;2.20;;;1.15;;
52918;SDS011;38793;52.690;6.812;2023-07-31T15:04:18;2.85;;;1.38;;
52918;SDS011;38793;52.690;6.812;2023-07-31T15:09:09;3.42;;;1.40;;
52918;SDS011;38793;52.690;6.812;2023-07-31T15:14:00;2.15;;;1.52;;
52918;SDS011;38793;52.690;6.812;2023-07-31T15:18:51;2.05;;;1.17;;
52918;SDS011;38793;52.690;6.812;2023-07-31T15:21:16;2.17;;;1.38;;
52918;SDS011;38793;52.690;6.812;2023-07-31T15:23:42;2.42;;;2.22;;
52918;SDS011;38793;52.690;6.812;2023-07-31T15:28:33;2.55;;;2.30;;
52918;SDS011;38793;52.690;6.812;2023-07-31T15:31:01;3.00;;;2.78;;
52918;SDS011;38793;52.690;6.812;2023-07-31T15:33:27;3.78;;;3.35;;
52918;SDS011;38793;52.690;6.812;2023-07-31T15:35:53;3.75;;;2.97;;
52918;SDS011;38793;52.690;6.812;2023-07-31T15:38:20;2.85;;;2.53;;
52918;SDS011;38793;52.690;6.812;2023-07-31T15:43:13;8.27;;;4.22;;
52918;SDS011;38793;52.690;6.812;2023-07-31T15:45:44;4.30;;;3.03;;
52918;SDS011;38793;52.690;6.812;2023-07-31T15:48:09;6.60;;;4.03;;
52918;SDS011;38793;52.690;6.812;2023-07-31T15:50:35;5.47;;;4.10;;
52918;SDS011;38793;52.690;6.812;2023-07-31T15:53:01;6.05;;;4.80;;
52918;SDS011;38793;52.690;6.812;2023-07-31T15:55:26;4.57;;;4.15;;
52918;SDS011;38793;52.690;6.812;2023-07-31T15:57:52;3.13;;;2.92;;
52918;SDS011;38793;52.690;6.812;2023-07-31T16:00:18;2.30;;;2.10;;
52918;SDS011;38793;52.690;6.812;2023-07-31T16:05:09;1.90;;;1.77;;
52918;SDS011;38793;52.690;6.812;2023-07-31T16:10:01;2.75;;;2.60;;
52918;SDS011;38793;52.690;6.812;2023-07-31T16:12:26;2.45;;;2.25;;
52918;SDS011;38793;52.690;6.812;2023-07-31T16:14:52;3.38;;;3.17;;
52918;SDS011;38793;52.690;6.812;2023-07-31T16:17:18;3.10;;;2.63;;
52918;SDS011;38793;52.690;6.812;2023-07-31T16:22:09;2.45;;;2.25;;
52918;SDS011;38793;52.690;6.812;2023-07-31T16:24:35;2.30;;;2.17;;
52918;SDS011;38793;52.690;6.812;2023-07-31T16:29:27;2.83;;;2.60;;
52918;SDS011;38793;52.690;6.812;2023-07-31T16:31:52;2.60;;;2.40;;